Aviation Digital Data Service (ADDS)

Output produced by METARs form (2100 UTC 01 September 2014)
found at http://aviationweather.gov/adds/metars/
 
KAUG 011728Z 0118/0218 VRB04KT P6SM SCT035 SCT050 
     FM020500 00000KT 4SM BR BKN010 
     FM020700 00000KT 1/4SM FG VV001 
     FM021330 15004KT P6SM SCT030 SCT100